Terminal Aerodrome Forecast
Issued by NWS

Home | Current Version | Previous Version | Text Only | Print | Product List | Glossary On
Versions: 1 2 3 4 5 6 7 8 9 10 11 12 13 14 15 16 17
000
FTUS46 KSEW 011700
TAFHQM
TAF
KHQM 011737Z 0118/0218 06007KT P6SM BKN180
     FM012300 24008KT P6SM BKN100 OVC150
     FM020200 28007KT P6SM -RA BKN020 OVC040
     FM020400 04003KT 5SM -RA BR OVC012
     FM021200 04005KT 6SM BR BKN018 OVC030=

USA.gov is the U.S. government's official web portal to all federal, state and local government web resources and services.